createdAt,value
2022-11-04T00:00:57.001Z,97683.06
2022-11-04T00:06:06.476Z,97668.94
2022-11-04T00:11:26.221Z,97667.97
2022-11-04T00:16:43.432Z,97663.75
2022-11-04T00:22:03.228Z,97662.19
2022-11-04T00:27:20.574Z,97655.31
2022-11-04T00:32:37.873Z,97660.88
2022-11-04T00:37:46.835Z,97655.44
2022-11-04T00:42:51.662Z,97654.66
2022-11-04T00:47:56.400Z,97639.97
2022-11-04T00:53:05.284Z,97645.53
2022-11-04T00:58:10.706Z,97648.19
2022-11-04T01:03:15.822Z,97640.94
2022-11-04T01:08:23.193Z,97632.09
2022-11-04T01:13:28.142Z,97617.91
2022-11-04T01:18:32.996Z,97626.78
2022-11-04T01:23:40.767Z,97633.03
2022-11-04T01:28:46.698Z,97619.38
2022-11-04T01:33:51.715Z,97608.84
2022-11-04T01:39:00.467Z,97604.31
2022-11-04T01:44:06.759Z,97608.03
2022-11-04T01:49:29.094Z,97606.25
2022-11-04T01:54:38.115Z,97598.84
2022-11-04T01:59:44.469Z,97608.50
2022-11-04T02:04:49.772Z,97596.25
2022-11-04T02:09:58.145Z,97596.41
2022-11-04T02:15:02.916Z,97579.00
2022-11-04T02:20:23.415Z,97581.66
2022-11-04T02:25:49.861Z,97588.06
2022-11-04T02:31:04.379Z,97590.88
2022-11-04T02:36:19.703Z,97566.78
2022-11-04T02:41:38.044Z,97561.91
2022-11-04T02:46:52.273Z,97596.00
2022-11-04T02:52:04.744Z,97594.78
2022-11-04T02:57:15.930Z,97599.00
2022-11-04T03:02:30.373Z,97589.03
2022-11-04T03:07:40.394Z,97581.16
2022-11-04T03:12:51.163Z,97603.38
2022-11-04T03:18:09.065Z,97687.09
2022-11-04T03:23:14.938Z,97663.63
2022-11-04T03:28:30.355Z,97698.91
2022-11-04T03:33:44.209Z,97697.16
2022-11-04T03:38:49.441Z,97703.69
2022-11-04T03:43:54.588Z,97700.03
2022-11-04T03:49:02.916Z,97689.19
2022-11-04T03:54:09.488Z,97672.50
2022-11-04T03:59:34.146Z,97665.84
2022-11-04T04:04:47.217Z,97666.31
2022-11-04T04:09:58.032Z,97667.16
2022-11-04T04:15:09.672Z,97671.41
2022-11-04T04:20:23.581Z,97669.34
2022-11-04T04:25:44.309Z,97675.00
2022-11-04T04:30:50.905Z,97684.56
2022-11-04T04:36:00.353Z,97675.59
2022-11-04T04:41:25.282Z,97681.81
2022-11-04T04:46:34.322Z,97687.28
2022-11-04T04:51:48.890Z,97697.81
2022-11-04T04:56:54.132Z,97690.28
2022-11-04T05:02:01.158Z,97684.00
2022-11-04T05:07:10.191Z,97683.88
2022-11-04T05:12:15.668Z,97684.78
2022-11-04T05:17:20.671Z,97692.78
2022-11-04T05:22:30.370Z,97686.34
2022-11-04T05:27:36.510Z,97693.88
2022-11-04T05:32:42.531Z,97696.56
2022-11-04T05:37:49.997Z,97696.44
2022-11-04T05:42:54.849Z,97696.56
2022-11-04T05:48:04.604Z,97705.78
2022-11-04T05:53:12.626Z,97708.91
2022-11-04T05:58:18.010Z,97715.00
2022-11-04T06:03:22.877Z,97721.34
2022-11-04T06:08:31.621Z,97721.09
2022-11-04T06:13:37.043Z,97701.44
2022-11-04T06:18:42.857Z,97728.31
2022-11-04T06:23:50.778Z,97723.94
2022-11-04T06:28:55.698Z,97732.75
2022-11-04T06:34:00.672Z,97721.22
2022-11-04T06:39:09.618Z,97719.66
2022-11-04T06:44:16.744Z,97722.88
2022-11-04T06:49:25.434Z,97717.75
2022-11-04T06:54:32.845Z,97707.34
2022-11-04T06:59:37.904Z,97708.13
2022-11-04T07:04:42.724Z,97710.13
2022-11-04T07:09:52.668Z,97707.66
2022-11-04T07:14:57.886Z,97708.84
2022-11-04T07:20:07.098Z,97705.16
2022-11-04T07:25:19.240Z,97703.34
2022-11-04T07:30:24.159Z,97694.38
2022-11-04T07:35:30.207Z,97706.81
2022-11-04T07:40:39.565Z,97732.25
2022-11-04T07:45:44.729Z,97723.59
2022-11-04T07:50:49.564Z,97725.13
2022-11-04T07:55:57.002Z,97739.19
2022-11-04T08:01:02.720Z,97748.63
2022-11-04T08:06:10.113Z,97759.66
2022-11-04T08:11:21.464Z,97761.41
2022-11-04T08:16:33.956Z,97755.28
2022-11-04T08:21:39.375Z,97745.75
2022-11-04T08:26:47.298Z,97732.44
2022-11-04T08:31:52.388Z,97740.31
2022-11-04T08:37:00.537Z,97738.09
2022-11-04T08:42:08.376Z,97729.31
2022-11-04T08:47:15.717Z,97717.66
2022-11-04T08:52:24.527Z,97722.88
2022-11-04T08:57:32.208Z,97697.78
2022-11-04T09:02:37.110Z,97699.41
2022-11-04T09:07:42.199Z,97687.00
2022-11-04T09:12:51.079Z,97682.22
2022-11-04T09:17:57.058Z,97692.09
2022-11-04T09:23:02.441Z,97716.56
2022-11-04T09:28:10.256Z,97710.47
2022-11-04T09:33:15.325Z,97705.13
2022-11-04T09:38:20.627Z,97717.22
2022-11-04T09:43:49.766Z,97715.44
2022-11-04T09:49:00.065Z,97711.78
2022-11-04T09:54:11.173Z,97730.88
2022-11-04T09:59:24.483Z,97737.44
2022-11-04T10:04:41.424Z,97744.31
2022-11-04T10:10:01.276Z,97726.75
2022-11-04T10:15:36.935Z,97733.97
2022-11-04T10:20:52.578Z,97745.91
2022-11-04T10:26:03.703Z,97761.03
2022-11-04T10:31:17.078Z,97762.03
2022-11-04T10:36:22.645Z,97762.44
2022-11-04T10:41:33.178Z,97762.72
2022-11-04T10:46:56.323Z,97763.66
2022-11-04T10:52:01.320Z,97769.47
2022-11-04T10:57:06.264Z,97789.38
2022-11-04T11:02:13.711Z,97794.09
2022-11-04T11:07:23.676Z,97788.91
2022-11-04T11:12:50.604Z,97790.19
2022-11-04T11:18:03.111Z,97780.28
2022-11-04T11:23:37.750Z,97771.44
2022-11-04T11:28:54.425Z,97765.50
2022-11-04T11:34:08.383Z,97765.94
2022-11-04T11:39:22.049Z,97787.16
2022-11-04T11:44:33.041Z,97775.16
2022-11-04T11:49:40.605Z,97756.78
2022-11-04T11:54:47.757Z,97756.47
2022-11-04T12:11:04.234Z,97755.47
2022-11-04T12:16:28.781Z,97761.44
2022-11-04T12:21:42.092Z,97767.94
2022-11-04T12:26:56.268Z,97759.47
2022-11-04T12:32:11.623Z,97773.59
2022-11-04T12:37:28.283Z,97767.63
2022-11-04T12:42:43.237Z,97765.53
2022-11-04T12:47:49.821Z,97762.63
2022-11-04T12:53:19.983Z,97747.16
2022-11-04T12:58:36.924Z,97749.38
2022-11-04T13:03:50.483Z,97740.16
2022-11-04T13:09:03.520Z,97741.72
2022-11-04T13:14:13.671Z,97739.16
2022-11-04T13:19:29.231Z,97744.31
2022-11-04T13:24:40.994Z,97744.59
2022-11-04T13:29:46.749Z,97749.13
2022-11-04T13:35:00.521Z,97750.69
2022-11-04T13:40:18.269Z,97758.34
2022-11-04T13:45:24.947Z,97771.97
2022-11-04T13:50:38.419Z,97771.72
2022-11-04T13:55:56.211Z,97766.78
2022-11-04T14:01:13.909Z,97779.38
2022-11-04T14:06:19.225Z,97777.72
2022-11-04T14:11:26.958Z,97789.88
2022-11-04T14:16:47.539Z,97784.50
2022-11-04T14:22:09.084Z,97784.59
2022-11-04T14:27:33.628Z,97807.72
2022-11-04T14:32:43.801Z,97813.16
2022-11-04T14:37:56.216Z,97824.91
2022-11-04T14:43:21.349Z,97832.69
2022-11-04T14:48:26.565Z,97833.16
2022-11-04T14:53:36.418Z,97837.50
2022-11-04T14:58:57.171Z,97829.50
2022-11-04T15:04:13.038Z,97843.50
2022-11-04T15:09:33.274Z,97848.03
2022-11-04T15:14:41.968Z,97847.03
2022-11-04T15:19:52.010Z,97852.09
2022-11-04T15:24:57.239Z,97858.19
2022-11-04T15:30:08.261Z,97854.00
2022-11-04T15:35:16.281Z,97864.28
2022-11-04T15:40:21.788Z,97877.91
2022-11-04T15:45:38.213Z,97877.47
2022-11-04T15:50:43.381Z,97879.81
2022-11-04T15:55:50.878Z,97885.09
2022-11-04T16:00:59.766Z,97891.06
2022-11-04T16:06:07.505Z,97906.66
2022-11-04T16:11:16.842Z,97897.91
2022-11-04T16:16:29.531Z,97901.69
2022-11-04T16:21:38.919Z,97910.25
2022-11-04T16:26:48.042Z,97905.91
2022-11-04T16:32:17.562Z,97917.75
2022-11-04T16:37:22.577Z,97916.69
2022-11-04T16:42:27.606Z,97926.03
2022-11-04T16:47:41.519Z,97930.25
2022-11-04T16:52:46.855Z,97939.31
2022-11-04T16:58:01.339Z,97941.19
2022-11-04T17:03:22.182Z,97944.78
2022-11-04T17:08:28.891Z,97948.84
2022-11-04T17:13:36.513Z,97944.47
2022-11-04T17:18:46.119Z,97953.53
2022-11-04T17:23:52.059Z,97956.66
2022-11-04T17:28:57.307Z,97958.84
2022-11-04T17:34:05.904Z,97959.94
2022-11-04T17:39:11.124Z,97959.16
2022-11-04T17:44:15.972Z,97968.34
2022-11-04T17:49:25.514Z,97966.16
2022-11-04T17:54:32.859Z,97966.63
2022-11-04T17:59:38.411Z,97976.13
2022-11-04T18:04:48.267Z,97973.94
2022-11-04T18:09:53.313Z,97982.09
2022-11-04T18:15:00.295Z,97985.03
2022-11-04T18:20:13.663Z,97986.75
2022-11-04T18:25:19.757Z,97990.50
2022-11-04T18:30:25.285Z,97995.00
2022-11-04T18:35:32.589Z,97990.00
2022-11-04T18:40:37.771Z,97977.66
2022-11-04T18:45:43.934Z,97973.00
2022-11-04T18:50:54.113Z,97987.84
2022-11-04T18:56:04.913Z,97986.59
2022-11-04T19:01:16.087Z,97983.34
2022-11-04T19:06:26.030Z,97973.19
2022-11-04T19:11:33.450Z,97978.44
2022-11-04T19:16:39.020Z,97980.81
2022-11-04T19:21:47.411Z,97983.94
2022-11-04T19:26:52.270Z,97995.81
2022-11-04T19:31:57.082Z,98002.50
2022-11-04T19:37:04.630Z,98006.25
2022-11-04T19:42:22.578Z,97993.31
2022-11-04T19:47:27.734Z,98016.22
2022-11-04T19:52:36.596Z,98024.81
2022-11-04T19:57:42.563Z,98027.03
2022-11-04T20:02:47.789Z,98030.69
2022-11-04T20:07:55.794Z,98033.81
2022-11-04T20:13:13.137Z,98050.38
2022-11-04T20:18:18.231Z,98050.19
2022-11-04T20:23:26.837Z,98061.47
2022-11-04T20:28:31.745Z,98072.78
2022-11-04T20:33:36.767Z,98080.75
2022-11-04T20:38:44.658Z,98080.16
2022-11-04T20:43:51.222Z,98083.75
2022-11-04T20:48:56.894Z,98087.81
2022-11-04T20:54:06.889Z,98092.94
2022-11-04T20:59:12.434Z,98096.19
2022-11-04T21:04:19.120Z,98093.28
2022-11-04T21:09:26.688Z,98102.44
2022-11-04T21:14:35.165Z,98114.25
2022-11-04T21:19:46.726Z,98113.59
2022-11-04T21:24:54.118Z,98122.38
2022-11-04T21:29:58.881Z,98120.19
2022-11-04T21:35:03.760Z,98120.09
2022-11-04T21:40:13.131Z,98121.66
2022-11-04T21:45:17.964Z,98134.25
2022-11-04T21:50:22.774Z,98127.31
2022-11-04T21:55:30.350Z,98133.13
2022-11-04T22:00:35.440Z,98139.91
2022-11-04T22:05:41.540Z,98131.75
2022-11-04T22:10:50.207Z,98140.78
2022-11-04T22:16:02.142Z,98140.81
2022-11-04T22:21:11.303Z,98137.41
2022-11-04T22:26:21.002Z,98153.03
2022-11-04T22:31:27.934Z,98154.94
2022-11-04T22:36:36.198Z,98158.69
2022-11-04T22:41:43.854Z,98157.13
2022-11-04T22:46:48.631Z,98166.94
2022-11-04T22:51:53.342Z,98156.16
2022-11-04T22:57:00.795Z,98163.34
2022-11-04T23:02:05.656Z,98154.47
2022-11-04T23:07:10.579Z,98168.69
2022-11-04T23:12:30.384Z,98163.88
2022-11-04T23:18:03.159Z,98162.59
2022-11-04T23:23:20.352Z,98164.81
2022-11-04T23:28:40.164Z,98171.59
2022-11-04T23:33:57.427Z,98174.91
2022-11-04T23:39:02.134Z,98165.56
2022-11-04T23:44:29.918Z,98171.28
2022-11-04T23:49:47.163Z,98178.88
2022-11-04T23:55:04.488Z,98188.47
